createdAt,value
2018-06-01T00:00:36.685Z,19.31
2018-06-01T00:01:37.216Z,19.41
2018-06-01T00:02:37.780Z,19.29
2018-06-01T00:03:38.347Z,19.39
2018-06-01T00:04:38.890Z,19.47
2018-06-01T00:05:39.453Z,19.34
2018-06-01T00:06:39.995Z,19.37
2018-06-01T00:07:40.542Z,19.40
2018-06-01T00:08:41.095Z,19.24
2018-06-01T00:09:41.639Z,19.27
2018-06-01T00:10:42.192Z,19.11
2018-06-01T00:11:42.741Z,19.09
2018-06-01T00:12:43.292Z,19.04
2018-06-01T00:13:43.848Z,19.07
2018-06-01T00:14:44.400Z,18.99
2018-06-01T00:15:44.949Z,18.93
2018-06-01T00:16:45.494Z,18.99
2018-06-01T00:17:46.046Z,19.02
2018-06-01T00:18:46.596Z,19.04
2018-06-01T00:19:47.151Z,19.11
2018-06-01T00:20:47.702Z,19.09
2018-06-01T00:21:48.252Z,19.06
2018-06-01T00:22:48.800Z,19.06
2018-06-01T00:23:49.353Z,19.15
2018-06-01T00:24:49.897Z,19.12
2018-06-01T00:25:50.449Z,19.09
2018-06-01T00:26:51.111Z,19.07
2018-06-01T00:27:51.660Z,19.11
2018-06-01T00:28:52.214Z,19.15
2018-06-01T00:29:52.767Z,19.02
2018-06-01T00:30:53.310Z,19.04
2018-06-01T00:31:53.870Z,19.09
2018-06-01T00:32:54.413Z,19.06
2018-06-01T00:33:54.962Z,19.11
2018-06-01T00:34:55.507Z,19.14
2018-06-01T00:35:56.052Z,19.15
2018-06-01T00:36:56.600Z,19.16
2018-06-01T00:37:57.153Z,19.18
2018-06-01T00:38:57.706Z,19.30
2018-06-01T00:39:58.258Z,19.14
2018-06-01T00:40:58.809Z,19.14
2018-06-01T00:41:59.358Z,19.25
2018-06-01T00:42:59.910Z,19.30
2018-06-01T00:44:00.466Z,19.31
2018-06-01T00:45:01.018Z,19.14
2018-06-01T00:46:01.569Z,19.16
2018-06-01T00:47:02.121Z,19.06
2018-06-01T00:48:02.671Z,18.98
2018-06-01T00:49:03.223Z,18.98
2018-06-01T00:50:03.774Z,18.93
2018-06-01T00:51:04.323Z,18.96
2018-06-01T00:52:04.873Z,18.92
2018-06-01T00:53:05.425Z,18.98
2018-06-01T00:54:05.977Z,18.92
2018-06-01T00:55:06.528Z,18.90
2018-06-01T00:56:07.078Z,18.98
2018-06-01T00:57:07.629Z,18.96
2018-06-01T00:58:08.177Z,18.95
2018-06-01T00:59:08.725Z,18.98
2018-06-01T01:00:09.280Z,18.93
2018-06-01T01:01:09.832Z,18.98
2018-06-01T01:02:10.395Z,19.02
2018-06-01T01:03:10.941Z,18.98
2018-06-01T01:04:11.490Z,18.98
2018-06-01T01:05:12.041Z,19.00
2018-06-01T01:06:12.592Z,18.99
2018-06-01T01:07:13.151Z,18.95
2018-06-01T01:08:13.700Z,18.96
2018-06-01T01:09:14.252Z,18.89
2018-06-01T01:10:14.797Z,18.93
2018-06-01T01:11:15.355Z,18.93
2018-06-01T01:12:15.905Z,18.95
2018-06-01T01:13:16.453Z,18.95
2018-06-01T01:14:17.004Z,18.98
2018-06-01T01:15:17.556Z,19.04
2018-06-01T01:16:18.113Z,18.93
2018-06-01T01:17:18.659Z,19.02
2018-06-01T01:18:19.205Z,18.96
2018-06-01T01:19:19.756Z,18.89
2018-06-01T01:20:20.307Z,18.92
2018-06-01T01:21:20.855Z,18.93
2018-06-01T01:22:21.409Z,18.95
2018-06-01T01:23:21.965Z,19.04
2018-06-01T01:24:22.514Z,18.96
2018-06-01T01:25:23.060Z,19.07
2018-06-01T01:26:23.617Z,19.09
2018-06-01T01:27:24.162Z,19.06
2018-06-01T01:28:24.707Z,19.11
2018-06-01T01:29:25.273Z,19.09
2018-06-01T01:30:25.812Z,19.18
2018-06-01T01:31:26.363Z,19.14
2018-06-01T01:32:26.906Z,19.25
2018-06-01T01:33:27.459Z,19.15
2018-06-01T01:34:28.004Z,19.19
2018-06-01T01:35:28.557Z,19.21
2018-06-01T01:36:29.113Z,19.27
2018-06-01T01:37:29.661Z,19.22
2018-06-01T01:38:30.212Z,19.27
2018-06-01T01:39:30.767Z,19.18
2018-06-01T01:40:31.315Z,19.29
2018-06-01T01:41:31.864Z,19.29
2018-06-01T01:42:32.418Z,19.29
2018-06-01T01:43:32.969Z,19.31
2018-06-01T01:44:33.521Z,19.25
2018-06-01T01:45:34.073Z,19.24
2018-06-01T01:46:34.624Z,19.34
2018-06-01T01:47:35.176Z,19.33
2018-06-01T01:48:35.722Z,19.27
2018-06-01T01:49:36.280Z,19.29
2018-06-01T01:50:36.826Z,19.30
2018-06-01T01:51:37.374Z,19.24
2018-06-01T01:52:37.928Z,19.29
2018-06-01T01:53:38.482Z,19.33
2018-06-01T01:54:39.032Z,19.34
2018-06-01T01:55:39.582Z,19.31
2018-06-01T01:56:40.132Z,19.43
2018-06-01T01:57:40.677Z,19.36
2018-06-01T01:58:41.229Z,19.37
2018-06-01T01:59:41.774Z,19.39
2018-06-01T02:00:42.326Z,19.41
2018-06-01T02:01:42.875Z,19.43
2018-06-01T02:02:43.428Z,19.48
2018-06-01T02:03:43.985Z,19.41
2018-06-01T02:04:44.531Z,19.47
2018-06-01T02:05:45.079Z,19.47
2018-06-01T02:06:45.632Z,19.51
2018-06-01T02:07:46.178Z,19.58
2018-06-01T02:08:46.731Z,19.64
2018-06-01T02:09:47.280Z,19.55
2018-06-01T02:10:47.831Z,19.58
2018-06-01T02:11:48.380Z,19.59
2018-06-01T02:12:48.929Z,19.59
2018-06-01T02:13:49.483Z,19.61
2018-06-01T02:14:50.031Z,19.64
2018-06-01T02:15:50.582Z,19.66
2018-06-01T02:16:51.135Z,19.67
2018-06-01T02:17:51.687Z,19.69
2018-06-01T02:18:52.239Z,19.64
2018-06-01T02:19:52.789Z,19.67
2018-06-01T02:20:53.338Z,19.64
2018-06-01T02:21:53.887Z,19.66
2018-06-01T02:22:54.434Z,19.69
2018-06-01T02:23:54.987Z,19.69
2018-06-01T02:24:55.541Z,19.74
2018-06-01T02:25:56.094Z,19.73
2018-06-01T02:26:56.650Z,19.73
2018-06-01T02:27:57.200Z,19.70
2018-06-01T02:28:57.749Z,19.79
2018-06-01T02:29:58.302Z,19.67
2018-06-01T02:30:58.852Z,19.66
2018-06-01T02:31:59.402Z,19.74
2018-06-01T02:32:59.954Z,19.74
2018-06-01T02:34:00.502Z,19.69
2018-06-01T02:35:01.048Z,19.73
2018-06-01T02:36:01.605Z,19.80
2018-06-01T02:37:02.153Z,19.71
2018-06-01T02:38:02.703Z,19.70
2018-06-01T02:39:03.254Z,19.69
2018-06-01T02:40:03.802Z,19.67
2018-06-01T02:41:04.360Z,19.66
2018-06-01T02:42:04.901Z,19.61
2018-06-01T02:43:05.454Z,19.61
2018-06-01T02:44:06.006Z,19.58
2018-06-01T02:45:06.553Z,19.64
2018-06-01T02:46:07.106Z,19.62
2018-06-01T02:47:07.669Z,19.67
2018-06-01T02:48:08.209Z,19.62
2018-06-01T02:49:08.761Z,19.56
2018-06-01T02:50:09.312Z,19.64
2018-06-01T02:51:09.864Z,19.61
2018-06-01T02:52:10.416Z,19.71
2018-06-01T02:53:10.967Z,19.71
2018-06-01T02:54:11.525Z,19.67
2018-06-01T02:55:12.071Z,19.67
2018-06-01T02:56:12.623Z,19.69
2018-06-01T02:57:13.174Z,19.64
2018-06-01T02:58:13.724Z,19.62
2018-06-01T02:59:14.277Z,19.67
2018-06-01T03:00:14.835Z,19.70
2018-06-01T03:01:15.381Z,19.66
2018-06-01T03:02:15.933Z,19.73
2018-06-01T03:03:16.483Z,19.70
2018-06-01T03:04:17.034Z,19.77
2018-06-01T03:05:17.588Z,19.76
2018-06-01T03:06:18.138Z,19.69
2018-06-01T03:07:18.702Z,19.66
2018-06-01T03:08:19.246Z,19.55
2018-06-01T03:09:19.801Z,19.58
2018-06-01T03:10:20.348Z,19.52
2018-06-01T03:11:20.908Z,19.56
2018-06-01T03:12:21.450Z,19.55
2018-06-01T03:13:21.997Z,19.47
2018-06-01T03:14:22.559Z,19.49
2018-06-01T03:15:23.098Z,19.48
2018-06-01T03:16:23.652Z,19.49
2018-06-01T03:17:24.204Z,19.48
2018-06-01T03:18:24.761Z,19.49
2018-06-01T03:19:25.311Z,19.49
2018-06-01T03:20:25.863Z,19.47
2018-06-01T03:21:26.420Z,19.49
2018-06-01T03:22:26.965Z,19.44
2018-06-01T03:23:27.521Z,19.43
2018-06-01T03:24:28.079Z,19.47
2018-06-01T03:25:28.619Z,19.47
2018-06-01T03:26:29.179Z,19.54
2018-06-01T03:27:29.735Z,19.51
2018-06-01T03:28:30.281Z,19.47
2018-06-01T03:29:30.833Z,19.56
2018-06-01T03:30:31.384Z,19.59
2018-06-01T03:31:31.937Z,19.62
2018-06-01T03:32:32.491Z,19.62
2018-06-01T03:33:33.037Z,19.62
2018-06-01T03:34:33.585Z,19.58
2018-06-01T03:35:34.131Z,19.73
2018-06-01T03:36:34.679Z,19.66
2018-06-01T03:37:35.238Z,19.70
2018-06-01T03:38:35.784Z,19.71
2018-06-01T03:39:36.338Z,19.81
2018-06-01T03:40:36.890Z,19.67
2018-06-01T03:41:37.448Z,19.81
2018-06-01T03:42:37.994Z,19.77
2018-06-01T03:43:38.548Z,19.74
2018-06-01T03:44:39.099Z,19.87
2018-06-01T03:45:39.653Z,19.77
2018-06-01T03:46:40.205Z,19.76
2018-06-01T03:47:40.755Z,19.77
2018-06-01T03:48:41.306Z,19.84
2018-06-01T03:49:41.861Z,19.70
2018-06-01T03:50:42.414Z,19.79
2018-06-01T03:51:42.968Z,19.74
2018-06-01T03:52:43.519Z,19.80
2018-06-01T03:53:44.065Z,19.76
2018-06-01T03:54:44.625Z,19.77
2018-06-01T03:55:45.173Z,19.70
2018-06-01T03:56:45.730Z,19.70
2018-06-01T03:57:46.275Z,19.61
2018-06-01T03:58:46.827Z,19.67
2018-06-01T03:59:47.379Z,19.66
2018-06-01T04:00:47.931Z,19.61
2018-06-01T04:01:48.480Z,19.58
2018-06-01T04:02:49.035Z,19.55
2018-06-01T04:03:49.585Z,19.52
2018-06-01T04:04:50.137Z,19.52
2018-06-01T04:05:50.691Z,19.48
2018-06-01T04:06:51.241Z,19.52
2018-06-01T04:07:51.788Z,19.41
2018-06-01T04:08:52.339Z,19.39
2018-06-01T04:09:52.892Z,19.44
2018-06-01T04:10:53.445Z,19.41
2018-06-01T04:11:53.996Z,19.37
2018-06-01T04:12:54.545Z,19.25
2018-06-01T04:13:55.101Z,19.30
2018-06-01T04:14:55.650Z,19.18
2018-06-01T04:15:56.195Z,19.21
2018-06-01T04:16:56.752Z,19.15
2018-06-01T04:17:57.303Z,19.09
2018-06-01T04:18:57.853Z,19.18
2018-06-01T04:19:58.403Z,19.15
2018-06-01T04:20:58.955Z,19.18
2018-06-01T04:21:59.508Z,19.15
2018-06-01T04:23:00.064Z,19.21
2018-06-01T04:24:00.620Z,19.16
2018-06-01T04:25:01.172Z,19.14
2018-06-01T04:26:01.726Z,19.12
2018-06-01T04:27:02.278Z,19.14
2018-06-01T04:28:02.831Z,19.18
2018-06-01T04:29:03.383Z,19.24
2018-06-01T04:30:03.938Z,19.19
2018-06-01T04:31:04.487Z,19.18
2018-06-01T04:32:05.040Z,19.25
2018-06-01T04:33:05.594Z,19.22
2018-06-01T04:34:06.347Z,19.31
2018-06-01T04:35:06.900Z,19.33
2018-06-01T04:36:07.457Z,19.34
2018-06-01T04:37:08.007Z,19.30
2018-06-01T04:38:08.563Z,19.21
2018-06-01T04:39:09.116Z,19.12
2018-06-01T04:40:09.672Z,19.14
2018-06-01T04:41:10.228Z,19.12
2018-06-01T04:42:10.785Z,19.09
2018-06-01T04:43:11.331Z,19.06
2018-06-01T04:44:11.885Z,19.14
2018-06-01T04:45:12.445Z,19.09
2018-06-01T04:46:12.989Z,19.02
2018-06-01T04:47:13.538Z,19.12
2018-06-01T04:48:14.091Z,18.99
2018-06-01T04:49:14.660Z,19.04
2018-06-01T04:50:15.194Z,19.00
2018-06-01T04:51:15.746Z,18.98
2018-06-01T04:52:16.297Z,19.09
2018-06-01T04:53:16.850Z,18.99
2018-06-01T04:54:17.407Z,18.96
2018-06-01T04:55:17.954Z,19.00
2018-06-01T04:56:18.510Z,19.04
2018-06-01T04:57:19.063Z,19.06
2018-06-01T04:58:19.618Z,19.09
2018-06-01T04:59:20.167Z,19.06
2018-06-01T05:00:20.717Z,19.07
2018-06-01T05:01:21.274Z,19.00
2018-06-01T05:02:21.821Z,18.93
2018-06-01T05:03:22.375Z,18.90
2018-06-01T05:04:22.928Z,18.81
2018-06-01T05:05:23.491Z,18.78
2018-06-01T05:06:24.040Z,18.80
2018-06-01T05:07:24.591Z,18.80
2018-06-01T05:08:25.144Z,18.69
2018-06-01T05:09:25.698Z,18.56
2018-06-01T05:10:26.254Z,18.47
2018-06-01T05:11:26.802Z,18.38
2018-06-01T05:12:27.356Z,18.29
2018-06-01T05:13:27.905Z,18.23
2018-06-01T05:14:28.461Z,18.14
2018-06-01T05:15:29.012Z,18.14
2018-06-01T05:16:29.562Z,18.11
2018-06-01T05:17:30.116Z,18.10
2018-06-01T05:18:30.671Z,18.05
2018-06-01T05:19:31.225Z,17.98
2018-06-01T05:20:31.789Z,18.01
2018-06-01T05:21:32.335Z,17.97
2018-06-01T05:22:32.895Z,17.89
2018-06-01T05:23:33.455Z,17.85
2018-06-01T05:24:34.009Z,17.86
2018-06-01T05:25:34.560Z,17.86
2018-06-01T05:26:35.110Z,17.85
2018-06-01T05:27:35.670Z,17.72
2018-06-01T05:28:36.216Z,17.72
2018-06-01T05:29:36.769Z,17.71
2018-06-01T05:30:37.326Z,17.74
2018-06-01T05:31:37.880Z,17.74
2018-06-01T05:32:38.443Z,17.74
2018-06-01T05:33:38.996Z,17.67
2018-06-01T05:34:39.555Z,17.72
2018-06-01T05:35:40.107Z,17.79
2018-06-01T05:36:40.658Z,17.71
2018-06-01T05:37:41.212Z,17.77
2018-06-01T05:38:41.770Z,17.79
2018-06-01T05:39:42.321Z,17.80
2018-06-01T05:40:42.873Z,17.79
2018-06-01T05:41:43.438Z,17.85
2018-06-01T05:42:43.994Z,17.82
2018-06-01T05:43:44.549Z,17.74
2018-06-01T05:44:45.105Z,17.82
2018-06-01T05:45:45.663Z,17.86
2018-06-01T05:46:46.216Z,17.80
2018-06-01T05:47:46.774Z,17.85
2018-06-01T05:48:47.337Z,17.72
2018-06-01T05:49:47.888Z,17.77
2018-06-01T05:50:48.442Z,17.85
2018-06-01T05:51:48.996Z,17.82
2018-06-01T05:52:49.553Z,17.79
2018-06-01T05:53:50.107Z,17.83
2018-06-01T05:54:50.660Z,17.86
2018-06-01T05:55:51.218Z,17.83
2018-06-01T05:56:51.774Z,18.00
2018-06-01T05:57:52.329Z,18.00
2018-06-01T05:58:52.880Z,18.04
2018-06-01T05:59:53.438Z,18.07
2018-06-01T06:00:53.997Z,18.08
2018-06-01T06:01:54.552Z,18.16
2018-06-01T06:02:55.112Z,18.11
2018-06-01T06:03:55.659Z,18.12
2018-06-01T06:04:56.219Z,18.20
2018-06-01T06:05:56.777Z,18.27
2018-06-01T06:06:57.330Z,18.38
2018-06-01T06:07:57.885Z,18.41
2018-06-01T06:08:58.445Z,18.51
2018-06-01T06:09:59.001Z,18.60
2018-06-01T06:10:59.555Z,18.56
2018-06-01T06:12:00.107Z,18.63
2018-06-01T06:13:00.667Z,18.65
2018-06-01T06:14:01.225Z,18.73
2018-06-01T06:15:01.784Z,18.80
2018-06-01T06:16:02.333Z,18.69
2018-06-01T06:17:02.888Z,18.81
2018-06-01T06:18:03.441Z,18.78
2018-06-01T06:19:03.999Z,18.96
2018-06-01T06:20:04.555Z,18.95
2018-06-01T06:21:05.110Z,19.06
2018-06-01T06:22:05.713Z,19.00
2018-06-01T06:23:06.272Z,19.06
2018-06-01T06:24:06.829Z,19.15
2018-06-01T06:25:07.391Z,19.14
2018-06-01T06:26:07.952Z,19.27
2018-06-01T06:27:08.512Z,19.21
2018-06-01T06:28:09.076Z,19.27
2018-06-01T06:29:09.632Z,19.29
2018-06-01T06:30:10.193Z,19.29
2018-06-01T06:31:10.746Z,19.36
2018-06-01T06:32:11.303Z,19.40
2018-06-01T06:33:11.861Z,19.43
2018-06-01T06:34:12.427Z,19.41
2018-06-01T06:35:12.976Z,19.49
2018-06-01T06:36:13.530Z,19.49
2018-06-01T06:37:14.083Z,19.55
2018-06-01T06:38:14.635Z,19.47
2018-06-01T06:39:15.193Z,19.44
2018-06-01T06:40:15.751Z,19.55
2018-06-01T06:41:16.311Z,19.64
2018-06-01T06:42:16.869Z,19.66
2018-06-01T06:43:17.427Z,19.67
2018-06-01T06:44:17.987Z,19.73
2018-06-01T06:45:18.547Z,19.67
2018-06-01T06:46:19.106Z,19.79
2018-06-01T06:47:19.666Z,19.74
2018-06-01T06:48:20.229Z,19.84
2018-06-01T06:49:20.794Z,19.73
2018-06-01T06:50:21.344Z,19.79
2018-06-01T06:51:21.901Z,19.80
2018-06-01T06:52:22.464Z,19.80
2018-06-01T06:53:23.075Z,19.92
2018-06-01T06:54:23.634Z,19.96
2018-06-01T06:55:24.191Z,20.06
2018-06-01T06:56:24.751Z,20.14
2018-06-01T06:57:25.311Z,20.13
2018-06-01T06:58:25.878Z,20.26
2018-06-01T06:59:26.447Z,20.21
2018-06-01T07:00:26.999Z,20.31
2018-06-01T07:01:27.572Z,20.43
2018-06-01T07:02:28.111Z,20.57
2018-06-01T07:03:28.673Z,20.62
2018-06-01T07:04:29.231Z,20.81
2018-06-01T07:05:29.787Z,20.77
2018-06-01T07:06:30.347Z,20.77
2018-06-01T07:07:30.907Z,20.80
2018-06-01T07:08:31.474Z,20.96
2018-06-01T07:09:32.030Z,20.96
2018-06-01T07:10:32.618Z,20.88
2018-06-01T07:11:33.154Z,20.82
2018-06-01T07:12:33.714Z,20.81
2018-06-01T07:13:34.267Z,20.87
2018-06-01T07:14:34.824Z,20.88
2018-06-01T07:15:35.383Z,20.70
2018-06-01T07:16:35.943Z,20.66
2018-06-01T07:17:36.500Z,20.66
2018-06-01T07:18:37.061Z,20.62
2018-06-01T07:19:37.620Z,20.57
2018-06-01T07:20:38.180Z,20.43
2018-06-01T07:21:38.738Z,20.40
2018-06-01T07:22:39.310Z,20.34
2018-06-01T07:23:39.873Z,20.34
2018-06-01T07:24:40.428Z,20.35
2018-06-01T07:25:40.986Z,20.29
2018-06-01T07:26:41.550Z,20.19
2018-06-01T07:27:42.139Z,20.19
2018-06-01T07:28:42.663Z,20.16
2018-06-01T07:29:43.226Z,20.28
2018-06-01T07:30:43.793Z,20.11
2018-06-01T07:31:44.357Z,20.25
2018-06-01T07:32:44.911Z,20.25
2018-06-01T07:33:45.479Z,20.28
2018-06-01T07:34:46.036Z,20.32
2018-06-01T07:35:46.598Z,20.29
2018-06-01T07:36:47.164Z,20.22
2018-06-01T07:37:47.722Z,20.14
2018-06-01T07:38:48.289Z,20.13
2018-06-01T07:39:48.852Z,19.98
2018-06-01T07:40:49.413Z,19.99
2018-06-01T07:41:49.973Z,20.03
2018-06-01T07:42:50.531Z,19.96
2018-06-01T07:43:51.098Z,19.91
2018-06-01T07:44:51.665Z,19.92
2018-06-01T07:45:52.220Z,20.03
2018-06-01T07:46:52.785Z,19.99
2018-06-01T07:52:55.113Z,19.92
2018-06-01T07:53:55.674Z,19.85
2018-06-01T07:54:56.237Z,19.89
2018-06-01T07:55:56.798Z,19.87
2018-06-01T07:56:57.363Z,19.85
2018-06-01T07:57:57.922Z,19.80
2018-06-01T07:58:58.480Z,19.85
2018-06-01T07:59:59.043Z,19.84
2018-06-01T08:00:59.598Z,19.88
2018-06-01T08:02:00.156Z,19.94
2018-06-01T08:03:00.714Z,20.06
2018-06-01T08:04:01.270Z,20.11
2018-06-01T08:05:01.856Z,20.25
2018-06-01T08:06:02.384Z,20.25
2018-06-01T08:07:02.942Z,20.32
2018-06-01T08:08:03.504Z,20.31
2018-06-01T08:09:04.066Z,20.54
2018-06-01T08:10:04.623Z,20.43
2018-06-01T08:11:05.175Z,20.51
2018-06-01T08:12:05.780Z,20.59
2018-06-01T08:13:06.340Z,20.50
2018-06-01T08:14:06.897Z,20.60
2018-06-01T08:15:07.455Z,20.59
2018-06-01T08:16:08.014Z,20.60
2018-06-01T08:17:08.569Z,20.52
2018-06-01T08:18:09.132Z,20.63
2018-06-01T08:19:09.696Z,20.50
2018-06-01T08:20:10.251Z,20.43
2018-06-01T08:21:10.812Z,20.42
2018-06-01T08:22:11.371Z,20.42
2018-06-01T08:23:11.926Z,20.52
2018-06-01T08:24:12.487Z,20.51
2018-06-01T08:25:13.045Z,20.42
2018-06-01T08:26:13.600Z,20.43
2018-06-01T08:27:14.153Z,20.42
2018-06-01T08:28:14.713Z,20.43
2018-06-01T08:29:15.270Z,20.32
2018-06-01T08:30:15.834Z,20.34
2018-06-01T08:31:16.395Z,20.39
2018-06-01T08:32:16.963Z,20.39
2018-06-01T08:33:17.512Z,20.39
2018-06-01T08:34:18.069Z,20.31
2018-06-01T08:35:18.629Z,20.34
2018-06-01T08:36:19.191Z,20.36
2018-06-01T08:37:19.751Z,20.36
2018-06-01T08:38:20.311Z,20.54
2018-06-01T08:39:20.877Z,20.60
2018-06-01T08:40:21.428Z,20.60
2018-06-01T08:41:21.988Z,20.66
2018-06-01T08:42:22.541Z,20.66
2018-06-01T08:43:23.099Z,20.67
2018-06-01T08:44:23.662Z,20.70
2018-06-01T08:45:24.221Z,20.67
2018-06-01T08:46:24.782Z,20.69
2018-06-01T08:47:25.337Z,20.66
2018-06-01T08:48:25.900Z,20.57
2018-06-01T08:49:26.460Z,20.54
2018-06-01T08:50:27.014Z,20.52
2018-06-01T08:51:27.576Z,20.34
2018-06-01T08:52:28.157Z,20.44
2018-06-01T08:53:28.694Z,20.42
2018-06-01T08:54:29.255Z,20.44
2018-06-01T08:55:29.811Z,20.32
2018-06-01T08:56:30.365Z,20.26
2018-06-01T08:57:30.923Z,20.24
2018-06-01T08:58:31.491Z,20.22
2018-06-01T08:59:32.038Z,20.28
2018-06-01T09:00:32.595Z,20.22
2018-06-01T09:01:33.148Z,20.09
2018-06-01T09:02:33.711Z,20.13
2018-06-01T09:03:34.265Z,20.07
2018-06-01T09:04:34.878Z,20.03
2018-06-01T09:05:35.384Z,19.99
2018-06-01T09:06:35.934Z,20.02
2018-06-01T09:07:36.486Z,20.03
2018-06-01T09:08:37.043Z,19.94
2018-06-01T09:09:37.596Z,19.98
2018-06-01T09:10:38.206Z,19.84
2018-06-01T09:11:38.762Z,19.76
2018-06-01T09:12:39.321Z,19.71
2018-06-01T09:13:39.880Z,19.74
2018-06-01T09:14:40.440Z,19.76
2018-06-01T09:15:41.002Z,19.74
2018-06-01T09:16:41.577Z,19.64
2018-06-01T09:17:42.120Z,19.55
2018-06-01T09:18:42.672Z,19.55
2018-06-01T09:19:43.231Z,19.61
2018-06-01T09:20:43.790Z,19.62
2018-06-01T09:21:44.350Z,19.61
2018-06-01T09:22:44.911Z,19.66
2018-06-01T09:23:45.471Z,19.58
2018-06-01T09:24:46.029Z,19.56
2018-06-01T09:25:46.588Z,19.59
2018-06-01T09:26:47.145Z,19.56
2018-06-01T09:27:47.699Z,19.58
2018-06-01T09:28:48.249Z,19.54
2018-06-01T09:29:48.807Z,19.61
2018-06-01T09:30:49.365Z,19.58
2018-06-01T09:31:49.918Z,19.52
2018-06-01T09:32:50.490Z,19.43
2018-06-01T09:33:51.048Z,19.54
2018-06-01T09:34:51.608Z,19.55
2018-06-01T09:35:52.170Z,19.47
2018-06-01T09:36:52.728Z,19.40
2018-06-01T09:37:53.286Z,19.40
2018-06-01T09:38:53.847Z,19.48
2018-06-01T09:39:54.406Z,19.48
2018-06-01T09:40:54.963Z,19.44
2018-06-01T09:41:55.521Z,19.48
2018-06-01T09:42:56.074Z,19.33
2018-06-01T09:43:56.641Z,19.39
2018-06-01T09:44:57.190Z,19.34
2018-06-01T09:45:57.752Z,19.31
2018-06-01T09:46:58.312Z,19.43
2018-06-01T09:47:58.873Z,19.33
2018-06-01T09:48:59.430Z,19.29
2018-06-01T09:49:59.990Z,19.29
2018-06-01T09:51:00.554Z,19.30
2018-06-01T09:52:01.111Z,19.25
2018-06-01T09:53:01.670Z,19.31
2018-06-01T09:54:02.227Z,19.21
2018-06-01T09:55:02.792Z,19.25
2018-06-01T09:56:03.350Z,19.36
2018-06-01T09:57:03.915Z,19.25
2018-06-01T09:58:04.463Z,19.30
2018-06-01T09:59:05.020Z,19.31
2018-06-01T10:00:05.577Z,19.36
2018-06-01T10:01:06.133Z,19.33
2018-06-01T10:02:06.692Z,19.33
2018-06-01T10:03:07.247Z,19.19
2018-06-01T10:04:07.809Z,19.18
2018-06-01T10:05:08.367Z,19.30
2018-06-01T10:06:08.924Z,19.19
2018-06-01T10:07:09.485Z,19.11
2018-06-01T10:08:10.044Z,19.12
2018-06-01T10:09:10.603Z,19.18
2018-06-01T10:10:11.162Z,19.14
2018-06-01T10:11:11.724Z,19.12
2018-06-01T10:12:12.278Z,19.16
2018-06-01T10:13:12.836Z,19.14
2018-06-01T10:14:13.399Z,19.15
2018-06-01T10:15:13.956Z,19.12
2018-06-01T10:16:14.523Z,19.11
2018-06-01T10:17:15.085Z,19.09
2018-06-01T10:18:59.865Z,19.25
2018-06-01T10:20:00.477Z,19.15
2018-06-01T10:21:01.007Z,19.18
2018-06-01T10:22:01.614Z,19.15
2018-06-01T10:23:02.185Z,19.14
2018-06-01T10:24:02.732Z,19.18
2018-06-01T10:25:03.294Z,19.24
2018-06-01T10:26:03.851Z,19.14
2018-06-01T10:27:04.403Z,19.19
2018-06-01T10:28:04.962Z,19.16
2018-06-01T10:29:05.525Z,19.14
2018-06-01T10:30:06.092Z,19.14
2018-06-01T10:31:06.674Z,19.11
2018-06-01T10:32:07.216Z,19.06
2018-06-01T10:33:07.780Z,19.02
2018-06-01T10:34:08.338Z,19.06
2018-06-01T10:35:08.900Z,18.98
2018-06-01T10:36:09.457Z,18.98
2018-06-01T10:37:10.021Z,18.93
2018-06-01T10:38:10.595Z,19.06
2018-06-01T10:39:11.153Z,18.95
2018-06-01T10:40:11.719Z,18.93
2018-06-01T10:41:12.274Z,19.07
2018-06-01T10:42:12.843Z,19.00
2018-06-01T10:43:13.403Z,19.04
2018-06-01T10:44:13.960Z,19.04
2018-06-01T10:45:14.566Z,18.93
2018-06-01T10:46:15.079Z,18.98
2018-06-01T10:47:15.628Z,18.98
2018-06-01T10:48:16.182Z,18.93
2018-06-01T10:49:16.741Z,18.87
2018-06-01T10:50:17.304Z,18.83
2018-06-01T10:51:17.855Z,18.84
2018-06-01T10:52:18.412Z,18.81
2018-06-01T10:53:18.966Z,18.83
2018-06-01T10:54:19.553Z,18.85
2018-06-01T10:55:20.081Z,18.85
2018-06-01T10:56:20.642Z,18.89
2018-06-01T10:57:21.200Z,18.83
2018-06-01T10:58:21.756Z,18.85
2018-06-01T10:59:22.314Z,18.75
2018-06-01T11:00:22.874Z,18.87
2018-06-01T11:01:23.431Z,18.90
2018-06-01T11:02:23.986Z,18.83
2018-06-01T11:03:24.544Z,18.81
2018-06-01T11:04:25.110Z,18.83
2018-06-01T11:05:25.668Z,18.68
2018-06-01T11:06:26.225Z,18.63
2018-06-01T11:07:26.785Z,18.60
2018-06-01T11:08:27.352Z,18.71
2018-06-01T11:09:27.901Z,18.56
2018-06-01T11:10:28.458Z,18.55
2018-06-01T11:11:29.023Z,18.56
2018-06-01T11:12:29.593Z,18.48
2018-06-01T11:13:30.138Z,18.51
2018-06-01T11:14:30.750Z,18.47
2018-06-01T11:15:31.253Z,18.48
2018-06-01T11:16:31.815Z,18.40
2018-06-01T11:17:32.368Z,18.32
2018-06-01T11:18:32.921Z,18.38
2018-06-01T11:19:33.483Z,18.34
2018-06-01T11:20:34.035Z,18.38
2018-06-01T11:21:34.665Z,18.34
2018-06-01T11:22:35.152Z,18.38
2018-06-01T11:23:35.708Z,18.38
2018-06-01T11:24:36.260Z,18.34
2018-06-01T11:25:36.815Z,18.38
2018-06-01T11:26:37.368Z,18.38
2018-06-01T11:27:37.951Z,18.41
2018-06-01T11:28:38.508Z,18.34
2018-06-01T11:29:39.066Z,18.34
2018-06-01T11:30:39.631Z,18.34
2018-06-01T11:31:40.188Z,18.34
2018-06-01T11:32:40.752Z,18.38
2018-06-01T11:33:41.327Z,18.35
2018-06-01T11:34:41.886Z,18.37
2018-06-01T11:35:42.445Z,18.32
2018-06-01T11:36:43.010Z,18.23
2018-06-01T11:37:43.568Z,18.32
2018-06-01T11:38:44.126Z,18.34
2018-06-01T11:39:44.685Z,18.32
2018-06-01T11:40:45.248Z,18.27
2018-06-01T11:41:45.802Z,18.22
2018-06-01T11:42:46.364Z,18.19
2018-06-01T11:43:46.922Z,18.16
2018-06-01T11:44:47.481Z,18.11
2018-06-01T11:45:48.041Z,18.11
2018-06-01T11:46:48.596Z,18.18
2018-06-01T11:47:49.151Z,18.19
2018-06-01T11:48:49.710Z,18.12
2018-06-01T11:49:50.278Z,18.16
2018-06-01T11:50:50.827Z,18.10
2018-06-01T11:51:51.388Z,18.16
2018-06-01T11:52:51.939Z,18.11
2018-06-01T11:53:52.495Z,18.14
2018-06-01T11:54:53.056Z,18.14
2018-06-01T11:55:53.618Z,18.18
2018-06-01T11:56:54.175Z,18.20
2018-06-01T11:57:54.741Z,18.11
2018-06-01T11:58:55.303Z,18.14
2018-06-01T11:59:55.856Z,17.95
2018-06-01T12:00:56.418Z,18.00
2018-06-01T12:01:56.983Z,17.95
2018-06-01T12:02:57.550Z,17.93
2018-06-01T12:03:58.111Z,17.83
2018-06-01T12:04:58.675Z,17.95
2018-06-01T12:05:59.233Z,17.85
2018-06-01T12:06:59.796Z,17.85
2018-06-01T12:08:00.359Z,17.89
2018-06-01T12:09:00.962Z,17.85
2018-06-01T12:10:01.474Z,17.79
2018-06-01T12:11:02.169Z,17.80
2018-06-01T12:12:02.584Z,17.85
2018-06-01T12:13:03.143Z,17.82
2018-06-01T12:14:03.701Z,17.83
2018-06-01T12:15:04.259Z,17.79
2018-06-01T12:16:04.820Z,17.85
2018-06-01T12:17:05.373Z,17.86
2018-06-01T12:18:05.930Z,17.83
2018-06-01T12:19:06.487Z,17.80
2018-06-01T12:20:07.045Z,17.85
2018-06-01T12:21:07.604Z,17.82
2018-06-01T12:22:08.182Z,17.77
2018-06-01T12:23:08.726Z,17.86
2018-06-01T12:24:09.280Z,17.83
2018-06-01T12:25:09.832Z,17.83
2018-06-01T12:26:10.387Z,17.89
2018-06-01T12:27:10.951Z,17.82
2018-06-01T12:28:11.507Z,17.83
2018-06-01T12:29:12.068Z,17.92
2018-06-01T12:30:12.612Z,18.01
2018-06-01T12:31:13.170Z,18.01
2018-06-01T12:32:13.722Z,17.95
2018-06-01T12:33:14.284Z,18.01
2018-06-01T12:34:14.850Z,18.00
2018-06-01T12:35:15.403Z,17.93
2018-06-01T12:36:15.961Z,18.04
2018-06-01T12:37:16.519Z,18.08
2018-06-01T12:38:17.078Z,18.03
2018-06-01T12:39:17.636Z,17.93
2018-06-01T12:40:18.188Z,17.95
2018-06-01T12:41:18.751Z,18.12
2018-06-01T12:42:19.305Z,18.08
2018-06-01T12:43:19.860Z,18.07
2018-06-01T12:44:20.418Z,18.14
2018-06-01T12:45:20.978Z,18.10
2018-06-01T12:46:21.535Z,18.20
2018-06-01T12:47:22.098Z,18.14
2018-06-01T12:48:22.658Z,18.27
2018-06-01T12:49:23.219Z,18.26
2018-06-01T12:50:23.778Z,18.38
2018-06-01T12:51:24.334Z,18.41
2018-06-01T12:52:24.886Z,18.43
2018-06-01T12:53:25.442Z,18.50
2018-06-01T12:54:26.002Z,18.58
2018-06-01T12:55:26.555Z,18.51
2018-06-01T12:56:27.118Z,18.60
2018-06-01T12:57:27.752Z,18.55
2018-06-01T12:58:28.311Z,18.56
2018-06-01T12:59:28.874Z,18.59
2018-06-01T13:00:29.444Z,18.65
2018-06-01T13:01:29.996Z,18.65
2018-06-01T13:02:30.557Z,18.65
2018-06-01T13:03:31.156Z,18.55
2018-06-01T13:04:31.683Z,18.51
2018-06-01T13:05:32.241Z,18.55